Tiempo atmosférico en la estación meteorológica de Pedraza, Segovia (1107 m.)



Fecha
DESCASC
Temp. máxima en grados centígrados (hora)
DESCASC
Temp. mínima en grados centígrados (hora)
DESCASC
Temp. media en grados centígrados
DESCASC
Racha de viento máxima en m/sg (hora)
DESCASC
Velocidad máxima media en intervalos de 10 minutos(hora)
DESCASC
Precipitaciones diarias en mm
DESCASC
Precipitaciones de 00:00 a 06:00 en mm
DESCASC
Precipitaciones de 06:00 a 12:00 en mm
DESCASC
Precipitaciones de 12:00 a 18:00 en mm
DESCASC
Precipitaciones de 18:00 a 24:00 en mm
DESCASC
04-03-2021 15.3 (13:50) 5.6 (04:50) 10.5 7.22 (14:50) 5 (14:40) 0 0 0 0 0
03-03-2021 13.7 (16:00) 2.8 (06:40) 8.2 5.28 (21:30) 3.33 (21:20) 0 0 0 0 0
02-03-2021 14 (16:00) 5 (05:00) 9.5 9.44 (01:10) 5.83 (01:10) 0 0 0 0 0
01-03-2021 7.8 (12:10) 5 (06:00) 6.4 17.22 (00:40) 10.83 (01:00) 0 0 0 0 0
28-02-2021 11.3 (13:40) 0.2 (00:00) 5.8 16.39 (21:50) 10.83 (21:20) 0 0 0 0 0
27-02-2021 15.8 (16:30) 1.8 (00:00) 8.8 5 (16:50) 3.33 (01:10) 0 0 0 0 0
26-02-2021 14.2 (15:40) 5.6 (00:00) 9.9 11.11 (06:50) 6.39 (12:50) 0 0 0 0 0
25-02-2021 13.5 (15:10) 5.3 (00:00) 9.4 14.44 (01:50) 8.33 (04:50) 0 0 0 0 0
24-02-2021 11.7 (13:50) 6.2 (00:00) 8.9 19.72 (09:50) 10.56 (10:20) 0 0 0 0 0
23-02-2021 10.9 (15:40) -1.5 (-00:0) 4.7 12.5 (21:20) 7.5 (21:20) 0 0 0 0 0
22-02-2021 3.8 (18:00) -0.8 (-00:0) 1.5 7.78 (02:00) 4.44 (02:20) 13.2 1.8 3 8.4 0
21-02-2021 10 (00:00) 0.2 (00:00) 5.1 16.67 (05:00) 11.11 (05:00) 2.8 0 0 0 2.8
20-02-2021 12.2 (13:40) 7.7 (00:00) 9.9 24.17 (13:20) 14.72 (13:20) 0 0 0 0 0
19-02-2021 15.9 (15:40) 5.4 (00:00) 10.6 12.22 (21:50) 8.33 (23:10) 0 0 0 0 0
18-02-2021 13.8 (14:50) 6.7 (00:00) 10.3 13.89 (13:10) 8.33 (12:50) 0 0 0 0 0
17-02-2021 14 (14:20) 5.2 (00:00) 9.6 8.06 (22:30) 5.56 (23:30) 0 0 0 0 0
16-02-2021 15.8 (11:40) 8.7 (00:00) 12.3 13.33 (11:50) 6.67 (11:20) 0 0 0 0 0
15-02-2021 16.1 (15:20) 4.5 (00:00) 10.3 8.33 (17:30) 5.28 (17:30) 0 0 0 0 0
14-02-2021 15.2 (16:00) 1.2 (00:00) 8.2 6.67 (22:40) 3.89 (22:40) 0 0 0 0 0
13-02-2021 10.7 (16:00) 1.9 (00:00) 6.3 9.44 (14:50) 6.11 (12:50) 0 0 0 0 0
12-02-2021 9.3 (03:00) 5.3 (00:00) 7.3 11.67 (05:40) 7.5 (10:50) 4.6 2.8 1.6 0.2 0
11-02-2021 12 (16:40) 4.7 (00:00) 8.3 8.33 (04:30) 5 (11:40) 0.6 0.2 0.2 0.2 0
10-02-2021 8.4 (16:30) 0.8 (00:00) 4.6 15.56 (08:20) 9.17 (04:30) 11 10.8 0.2 0 0
09-02-2021 8.4 (12:00) 0.8 (00:00) 4.6 21.11 (14:10) 12.78 (14:10) 11.6 2.2 0 5.8 3.6
08-02-2021 5.9 (01:00) 1.5 (00:00) 3.7 15 (14:20) 9.44 (13:30) 10 5.6 1.6 2.2 0.6
07-02-2021 5.5 (23:59) 0.1 (00:00) 2.8 10 (16:10) 6.39 (16:40) 1.8 0.2 0 0.4 1.2
06-02-2021 7.1 (12:30) 2.5 (00:00) 4.8 10.83 (01:50) 6.11 (01:10) 4 0.2 2.4 0.6 0.8
05-02-2021 13.8 (15:10) 5.5 (00:00) 9.7 16.39 (01:40) 9.17 (01:40) 3.6 0 0 0 3.6
04-02-2021 11.4 (15:10) 5.3 (00:00) 8.3 11.39 (14:10) 7.5 (14:50) 0.2 0.2 0 0 0

Gráficas

Temp. máximas Temp. mínimas Temp. medias Precipitaciones Rachas de viento máximas Velocidades máximas media en intervalos de 10 minutos

Datos horarios

Fecha y hora oficial Temperatura (ºC) Velocidad del viento (km/h) Dirección del viento Racha (km/h) Dirección de racha Precipitación (mm) Presión (hPa) Tendencia (hPa) Humedad (%)
2021-03-05 23:00:00 7.6 5 Sur 13 Sudeste 0 -- -- 68
2021-03-05 22:00:00 7.5 2 Nordeste 4 Nordeste 0 -- -- 65
2021-03-05 21:00:00 8.6 0 Calma 8 Sudeste 0 -- -- 64
2021-03-05 20:00:00 8.7 4 Sudeste 13 Sur 0 -- -- 62
2021-03-05 19:00:00 10.7 9 Sur 15 Sur 0 -- -- 56
2021-03-05 18:00:00 12.3 7 Sur 18 Sur 0 -- -- 50
2021-03-05 17:00:00 13.2 12 Sur 23 Sur 0 -- -- 48
2021-03-05 16:00:00 13.8 14 Sur 24 Sudeste 0 -- -- 47
2021-03-05 15:00:00 13.9 13 Sudeste 22 Sudeste 0 -- -- 47
2021-03-05 14:00:00 12.3 7 Nordeste 21 Norte 0 -- -- 63
2021-03-05 13:00:00 11.8 14 Norte 22 Nordeste 0 -- -- 66
2021-03-05 12:00:00 11.3 14 Norte 19 Norte 0 -- -- 64
2021-03-05 11:00:00 11.4 8 Este 23 Este 0 -- -- 59
2021-03-05 10:00:00 9.1 4 Este 10 Este 0 -- -- 69
2021-03-05 09:00:00 5.3 2 Noroeste 4 Noroeste 0 -- -- 84
2021-03-05 08:00:00 4.4 2 Norte 3 Sudeste 0 -- -- 86
2021-03-05 07:00:00 4.5 0 Calma 10 Nordeste 0 -- -- 85
2021-03-05 06:00:00 5.8 2 Sudoeste 14 Este 0 -- -- 80
2021-03-05 05:00:00 6.2 10 Este 15 Sudeste 0 -- -- 80
2021-03-05 04:00:00 5.8 5 Nordeste 9 Este 0 -- -- 77
2021-03-05 03:00:00 7.3 0 Calma 15 Sur 0 -- -- 72
2021-03-05 02:00:00 7.4 9 Sur 14 Sudeste 0 -- -- 69
2021-03-05 01:00:00 6.4 3 Sur 11 Sudoeste 0 -- -- 72
2021-03-05 00:00:00 6.8 0 Calma 8 Norte 0 -- -- 71
2021-03-04 23:00:00 7.8 3 Este 10 Sudeste 0 -- -- 65
2021-03-04 22:00:00 7.9 5 Sudeste 15 Sudeste 0 -- -- 63
2021-03-04 21:00:00 8.3 10 Sudeste 14 Sudeste 0 -- -- 64
2021-03-04 20:00:00 9.1 9 Este 14 Sudeste 0 -- -- 66
2021-03-04 19:00:00 11.1 4 Nordeste 12 Norte 0 -- -- 58
2021-03-04 18:00:00 12.2 5 Norte 11 Norte 0 -- -- 52
2021-03-04 17:00:00 13.2 4 Sudoeste 10 Sur 0 -- -- 47
2021-03-04 16:00:00 13.2 2 Sur 11 Noroeste 0 -- -- 48
2021-03-04 15:00:00 11.8 13 Noroeste 26 Noroeste 0 -- -- 56
2021-03-04 14:00:00 14.9 12 Sudeste 23 Este 0 -- -- 42
2021-03-04 13:00:00 14.8 9 Sudeste 22 Sur 0 -- -- 44
2021-03-04 12:00:00 14 9 Sudeste 20 Sudeste 0 -- -- 51
2021-03-04 11:00:00 13.1 8 Sudeste 17 Sudeste 0 -- -- 53
2021-03-04 10:00:00 10.9 4 Sudeste 14 Sudeste 0 -- -- 59
2021-03-04 09:00:00 8.3 10 Sudeste 19 Sudeste 0 -- -- 66
2021-03-04 08:00:00 6.4 11 Sudeste 15 Sudeste 0 -- -- 70
2021-03-04 07:00:00 5.9 7 Sudeste 11 Sudeste 0 -- -- 68
2021-03-04 06:00:00 6.3 7 Sudeste 11 Sudeste 0 -- -- 67
2021-03-04 05:00:00 5.7 6 Sudeste 9 Sudeste 0 -- -- 70
2021-03-04 04:00:00 6.4 8 Sudeste 10 Sudeste 0 -- -- 67
2021-03-04 03:00:00 6.4 8 Sudeste 10 Sudeste 0 -- -- 70
2021-03-04 02:00:00 7.2 8 Sudeste 15 Sudeste 0 -- -- 70
2021-03-04 01:00:00 7 5 Sudeste 9 Sudeste 0 -- -- 71
2021-03-04 00:00:00 7.5 5 Este 8 Sudeste 0 -- -- 69
2021-03-03 23:00:00 8 7 Sudeste 17 Sur 0 -- -- 73
2021-03-03 22:00:00 8.8 12 Sur 19 Sur 0 -- -- 74
2021-03-03 21:00:00 8.2 9 Sudeste 12 Sudeste 0 -- -- 73
2021-03-03 20:00:00 9.5 7 Sudeste 9 Sudeste 0 -- -- 72
2021-03-03 19:00:00 11.7 7 Este 10 Este 0 -- -- 66
2021-03-03 18:00:00 13.4 0 Calma 7 Sur 0 -- -- 53
2021-03-03 17:00:00 12.8 4 Norte 15 Norte 0 -- -- 56
2021-03-03 16:00:00 13.7 4 Sur 11 Nordeste 0 -- -- 52
2021-03-03 15:00:00 12.8 3 Este 15 Nordeste 0 -- -- 53
2021-03-03 14:00:00 11.6 4 Este 10 Este 0 -- -- 60
2021-03-03 13:00:00 10.7 6 Este 15 Sudeste 0 -- -- 63
2021-03-03 12:00:00 10 3 Sudeste 8 Este 0 -- -- 65
2021-03-03 11:00:00 6.9 0 Calma 4 Noroeste 0 -- -- 80
2021-03-03 10:00:00 4.9 0 Calma 10 Este 0 -- -- 81
2021-03-03 09:00:00 3.5 2 Este 7 Sudeste 0 -- -- 83
2021-03-03 08:00:00 3.7 8 Sudeste 10 Sudeste 0 -- -- 84
2021-03-03 07:00:00 3.1 6 Sudeste 7 Sudeste 0 -- -- 85
2021-03-03 06:00:00 3.8 0 Calma 7 Sudeste 0 -- -- 81
2021-03-03 05:00:00 4.9 6 Sudeste 12 Sudeste 0 -- -- 78
2021-03-03 04:00:00 5.3 8 Sudeste 18 Sur 0 -- -- 75
2021-03-03 03:00:00 5.7 11 Sudeste 18 Sudeste 0 -- -- 75
2021-03-03 02:00:00 5.4 7 Sudeste 16 Sur 0 -- -- 75
2021-03-03 01:00:00 5.7 10 Sudeste 17 Sudeste 0 -- -- 74
2021-03-03 00:00:00 5.8 8 Sudeste 13 Sudeste 0 -- -- 75
2021-03-02 23:00:00 5.8 10 Sudeste 14 Sudeste 0 -- -- 77
2021-03-02 22:00:00 6 8 Sudeste 13 Sudeste 0 -- -- 77
2021-03-02 21:00:00 7.2 11 Sudeste 17 Sudeste 0 -- -- 74
2021-03-02 20:00:00 7.5 12 Sudeste 18 Sudeste 0 -- -- 73
2021-03-02 19:00:00 9 11 Sudeste 26 Sudeste 0 -- -- 69
2021-03-02 18:00:00 10.7 11 Sudeste 21 Sur 0 -- -- 64
2021-03-02 17:00:00 13.9 9 Sudeste 18 Oeste 0 -- -- 54
2021-03-02 16:00:00 14 3 Sudoeste 13 Sur 0 -- -- 51
2021-03-02 15:00:00 12.8 8 Sur 21 Sudeste 0 -- -- 56
2021-03-02 14:00:00 11.5 14 Sudeste 32 Sudeste 0 -- -- 61
2021-03-02 13:00:00 11.1 20 Sudeste 28 Sudeste 0 -- -- 63
2021-03-02 12:00:00 11.4 14 Sudeste 26 Sudeste 0 -- -- 60
2021-03-02 11:00:00 10.6 12 Sudeste 26 Sudeste 0 -- -- 62
2021-03-02 10:00:00 9.3 11 Sudeste 19 Sudeste 0 -- -- 67
2021-03-02 09:00:00 7.3 11 Sudeste 22 Sur 0 -- -- 73
2021-03-02 08:00:00 5.7 13 Sudeste 20 Sudeste 0 -- -- 76
2021-03-02 07:00:00 5.7 14 Sudeste 23 Sudeste 0 -- -- 79
2021-03-02 06:00:00 5.7 13 Sudeste 21 Sudeste 0 -- -- 81
2021-03-02 05:00:00 5 9 Sudeste 19 Sudeste 0 -- -- 86
2021-03-02 04:00:00 5.4 13 Sudeste 24 Sudeste 0 -- -- 86
2021-03-02 03:00:00 5.6 16 Sudeste 24 Sur 0 -- -- 87
2021-03-02 02:00:00 5.8 14 Sudeste 34 Sur 0 -- -- 85
2021-03-02 01:00:00 6.3 18 Sur 33 Sudeste 0 -- -- 79
2021-03-02 00:00:00 6.2 23 Sur 40 Sur 0 -- -- 84
2021-03-01 23:00:00 6.3 30 Sur 45 Sudeste 0 -- -- 82
2021-03-01 22:00:00 6.1 18 Sudeste 44 Sudeste 0 -- -- 84
2021-03-01 21:00:00 6.5 25 Sudeste 40 Sur 0 -- -- 83
2021-03-01 20:00:00 7.1 17 Sur 37 Sudeste 0 -- -- 77
2021-03-01 19:00:00 6.9 14 Sur 34 Sudeste 0 -- -- 79
2021-03-01 18:00:00 7.1 17 Sur 41 Sur 0 -- -- 79
2021-03-01 17:00:00 6.7 13 Sur 39 Sur 0 -- -- 81
2021-03-01 16:00:00 7.2 17 Sudeste 38 Sur 0 -- -- 78
2021-03-01 15:00:00 7.4 25 Sur 46 Sur 0 -- -- 75
2021-03-01 14:00:00 7.7 21 Sur 44 Sur 0 -- -- 74
2021-03-01 13:00:00 7.2 27 Sudeste 53 Sudeste 0 -- -- 75
2021-03-01 12:00:00 7.3 30 Sur 48 Sudeste 0 -- -- 74
2021-03-01 11:00:00 6.1 32 Sudeste 50 Sudeste 0 -- -- 77
2021-03-01 10:00:00 7 28 Sur 58 Sur 0 -- -- 70
2021-03-01 09:00:00 5.6 28 Sur 51 Sur 0 -- -- 76
2021-03-01 08:00:00 5.4 25 Sur 56 Sur 0 -- -- 76
2021-03-01 07:00:00 5.3 23 Sudeste 41 Sudeste 0 -- -- 77
2021-03-01 06:00:00 5 37 Sur 58 Sur 0 -- -- 78
2021-03-01 05:00:00 5.2 32 Sur 56 Sur 0 -- -- 77
2021-03-01 04:00:00 5.2 31 Sur 57 Sur 0 -- -- 76
2021-03-01 03:00:00 5.6 28 Sur 50 Sur 0 -- -- 75
2021-03-01 02:00:00 5.5 31 Sur 53 Sur 0 -- -- 78
2021-03-01 01:00:00 6 39 Sur 62 Sur 0 -- -- 76
2021-03-01 00:00:00 6 32 Sudeste 57 Sudeste 0 -- -- 78
2021-02-28 23:00:00 6.2 34 Sur 56 Sur 0 -- -- 76
2021-02-28 22:00:00 6.6 33 Sudeste 59 Sur 0 -- -- 74
2021-02-28 21:00:00 7 35 Sudeste 57 Sudeste 0 -- -- 73
2021-02-28 20:00:00 7.8 33 Sudeste 53 Sudeste 0 -- -- 71
2021-02-28 19:00:00 8.5 23 Sudeste 44 Sur 0 -- -- 68
2021-02-28 18:00:00 9.8 29 Sudeste 44 Sur 0 -- -- 61
2021-02-28 17:00:00 10.5 27 Sudeste 37 Sur 0 -- -- 54
2021-02-28 16:00:00 10.7 25 Sur 45 Sudeste 0 -- -- 56
2021-02-28 15:00:00 10 25 Sudeste 41 Sudeste 0 -- -- 57
2021-02-28 14:00:00 11.1 23 Sudeste 36 Sur 0 -- -- 56
2021-02-28 13:00:00 10.8 21 Sudeste 35 Sudeste 0 -- -- 54
2021-02-28 12:00:00 9.8 22 Sudeste 36 Sur 0 -- -- 57
2021-02-28 11:00:00 10 13 Sudeste 23 Sudeste 0 -- -- 54
2021-02-28 10:00:00 8.7 6 Sur 12 Sur 0 -- -- 61
2021-02-28 09:00:00 4.2 5 Sudeste 13 Sudeste 0 -- -- 78
2021-02-28 08:00:00 0.3 7 Sudeste 8 Sudeste 0 -- -- 92
2021-02-28 07:00:00 0.5 0 Calma 4 Norte 0 -- -- 87
2021-02-28 06:00:00 2 2 Norte 9 Sudeste 0 -- -- 81
2021-02-28 05:00:00 2.7 8 Sudeste 10 Sudeste 0 -- -- 79
2021-02-28 04:00:00 1.9 6 Sudeste 8 Sudeste 0 -- -- 84
2021-02-28 03:00:00 3 0 Calma 12 Nordeste 0 -- -- 80
2021-02-28 02:00:00 3.9 4 Sudeste 7 Sur 0 -- -- 74
2021-02-28 01:00:00 3.2 5 Sudeste 10 Sur 0 -- -- 81
2021-02-28 00:00:00 3.8 4 Sudeste 18 Nordeste 0 -- -- 81
2021-02-27 23:00:00 4.7 6 Nordeste 17 Nordeste 0 -- -- 82
2021-02-27 22:00:00 5.9 7 Sudeste 10 Sudeste 0 -- -- 76
2021-02-27 21:00:00 6.2 8 Sudeste 9 Sudeste 0 -- -- 76
2021-02-27 20:00:00 7.9 3 Sudeste 9 Noroeste 0 -- -- 71
2021-02-27 19:00:00 10.9 8 Noroeste 14 Noroeste 0 -- -- 61
2021-02-27 18:00:00 14.2 10 Noroeste 17 Noroeste 0 -- -- 48
2021-02-27 17:00:00 15.7 10 Noroeste 18 Norte 0 -- -- 42
2021-02-27 16:00:00 15.4 9 Norte 17 Norte 0 -- -- 33
2021-02-27 15:00:00 14.6 9 Norte 14 Noroeste 0 -- -- 44
2021-02-27 14:00:00 14 7 Norte 14 Norte 0 -- -- 50
2021-02-27 13:00:00 12.7 4 Oeste 12 Noroeste 0 -- -- 52
2021-02-27 12:00:00 11.2 6 Noroeste 13 Noroeste 0 -- -- 59
2021-02-27 11:00:00 9.8 6 Noroeste 11 Oeste 0 -- -- 62
2021-02-27 10:00:00 7.6 0 Calma 6 Noroeste 0 -- -- 65
2021-02-27 09:00:00 4.8 3 Sudeste 8 Este 0 -- -- 66
2021-02-27 08:00:00 3.6 3 Sudeste 10 Sudeste 0 -- -- 66
2021-02-27 07:00:00 2.6 2 Nordeste 14 Sudeste 0 -- -- 71
2021-02-27 06:00:00 3.6 8 Sudeste 13 Este 0 -- -- 67
2021-02-27 05:00:00 4.5 5 Nordeste 14 Sudeste 0 -- -- 65
2021-02-27 04:00:00 3.8 9 Sudeste 12 Este 0 -- -- 71
2021-02-27 03:00:00 3.3 3 Sudeste 6 Sur 0 -- -- 74
2021-02-27 02:00:00 4.6 4 Sudeste 15 Este 0 -- -- 70
2021-02-27 01:00:00 6.1 10 Este 13 Este 0 -- -- 65
2021-02-27 00:00:00 5.9 5 Sudeste 10 Sudeste 0 -- -- 71
2021-02-26 23:00:00 6.9 6 Sudeste 11 Este 0 -- -- 69
2021-02-26 22:00:00 7.2 6 Sudeste 9 Sudeste 0 -- -- 68
2021-02-26 21:00:00 7.9 5 Sur 9 Sudeste 0 -- -- 66
2021-02-26 20:00:00 9.5 7 Sur 15 Sur 0 -- -- 62
2021-02-26 19:00:00 11.7 12 Sudeste 19 Sur 0 -- -- 52
2021-02-26 18:00:00 13.4 8 Sudeste 20 Sur 0 -- -- 47
2021-02-26 17:00:00 13.7 13 Sudeste 23 Sudeste 0 -- -- 48
2021-02-26 16:00:00 14.2 14 Sur 26 Sudeste 0 -- -- 47
2021-02-26 15:00:00 14.1 15 Sudeste 28 Sur 0 -- -- 47
2021-02-26 14:00:00 12.4 18 Sudeste 35 Sur 0 -- -- 50
2021-02-26 13:00:00 11.1 19 Sudeste 33 Sur 0 -- -- 53
2021-02-26 12:00:00 10.5 18 Sur 30 Sudeste 0 -- -- 55
2021-02-26 11:00:00 10.3 10 Sudeste 27 Sudeste 0 -- -- 57
2021-02-26 10:00:00 9.2 3 Oeste 18 Sudoeste 0 -- -- 59
2021-02-26 09:00:00 7.8 6 Nordeste 14 Nordeste 0 -- -- 67
2021-02-26 08:00:00 7.9 5 Norte 23 Sudeste 0 -- -- 67
2021-02-26 07:00:00 8 17 Sudeste 40 Sudeste 0 -- -- 69
2021-02-26 06:00:00 7.3 4 Sudeste 15 Sudeste 0 -- -- 73
2021-02-26 05:00:00 8.3 12 Sudeste 24 Sudeste 0 -- -- 68
2021-02-26 04:00:00 8.3 5 Este 11 Nordeste 0 -- -- 69
2021-02-26 03:00:00 8.9 6 Este 16 Este 0 -- -- 67
2021-02-26 02:00:00 9.5 11 Sudeste 26 Sudeste 0 -- -- 66
2021-02-26 01:00:00 8.5 17 Sudeste 25 Sudeste 0 -- -- 67
2021-02-26 00:00:00 10 14 Sudeste 27 Este 0 -- -- 59
2021-02-25 23:00:00 9 5 Este 17 Este 0 -- -- 63
2021-02-25 22:00:00 8.4 3 Sudeste 12 Sudeste 0 -- -- 66
2021-02-25 21:00:00 9.1 8 Sudeste 15 Sur 0 -- -- 64
2021-02-25 20:00:00 9 9 Sudeste 13 Sudeste 0 -- -- 67
2021-02-25 19:00:00 10 6 Sudeste 17 Sudeste 0 -- -- 64
2021-02-25 18:00:00 11.6 8 Sur 18 Sur 0 -- -- 58
2021-02-25 17:00:00 12.7 9 Sudeste 17 Sudeste 0 -- -- 56
2021-02-25 16:00:00 13.4 7 Noroeste 14 Noroeste 0 -- -- 53
2021-02-25 15:00:00 13.3 6 Sudoeste 14 Sudoeste 0 -- -- 52
2021-02-25 14:00:00 12.3 5 Oeste 14 Este 0 -- -- 55
2021-02-25 13:00:00 10.2 7 Nordeste 22 Sudeste 0 -- -- 60
2021-02-25 12:00:00 8.9 15 Sudeste 31 Sudeste 0 -- -- 67
2021-02-25 11:00:00 7.2 18 Sudeste 34 Sudeste 0 -- -- 74
2021-02-25 10:00:00 6.5 19 Sudeste 36 Sudeste 0 -- -- 76
2021-02-25 09:00:00 6.5 20 Sudeste 33 Sudeste 0 -- -- 72
2021-02-25 08:00:00 5.3 14 Este 38 Sudeste 0 -- -- 82
2021-02-25 07:00:00 5.9 10 Sudeste 30 Sudeste 0 -- -- 79
2021-02-25 06:00:00 6.1 18 Sudeste 45 Sudeste 0 -- -- 79
2021-02-25 05:00:00 6.6 26 Sudeste 46 Sur 0 -- -- 77
2021-02-25 04:00:00 7.1 29 Sudeste 48 Sudeste 0 -- -- 76
2021-02-25 03:00:00 7.2 23 Sudeste 39 Sudeste 0 -- -- 76
2021-02-25 02:00:00 7.3 17 Sudeste 52 Sudeste 0 -- -- 76
2021-02-25 01:00:00 7.9 22 Sudeste 52 Sudeste 0 -- -- 74
2021-02-25 00:00:00 7.9 23 Sudeste 42 Sudeste 0 -- -- 76
2021-02-24 23:00:00 8.1 23 Sudeste 40 Sur 0 -- -- 77
2021-02-24 22:00:00 8.3 21 Sudeste 37 Sur 0 -- -- 78
2021-02-24 21:00:00 8.7 20 Sudeste 28 Sudeste 0 -- -- 76
2021-02-24 20:00:00 9 13 Sudeste 26 Sudeste 0 -- -- 75
2021-02-24 19:00:00 9.6 14 Sur 22 Sur 0 -- -- 68
2021-02-24 18:00:00 11 12 Sur 35 Sudeste 0 -- -- 63
2021-02-24 17:00:00 11.2 21 Sudeste 41 Sur 0 -- -- 65
2021-02-24 16:00:00 11.7 22 Sudeste 34 Sudeste 0 -- -- 59
2021-02-24 15:00:00 11 15 Sudeste 42 Sur 0 -- -- 65
2021-02-24 14:00:00 11.7 24 Sur 50 Sur 0 -- -- 55
2021-02-24 13:00:00 11.4 24 Sur 54 Sudeste 0 -- -- 57
2021-02-24 12:00:00 9.6 34 Sudeste 59 Sur 0 -- -- 67
2021-02-24 11:00:00 8.8 36 Sur 50 Sur 0 -- -- 69
2021-02-24 10:00:00 8.3 30 Sur 71 Sur 0 -- -- 70
2021-02-24 09:00:00 7.7 23 Sur 35 Sudoeste 0 -- -- 69
2021-02-24 08:00:00 6.4 17 Sur 35 Sudoeste 0 -- -- 73
2021-02-24 07:00:00 6.5 24 Sur 36 Sur 0 -- -- 71
2021-02-24 06:00:00 6.4 17 Sur 54 Sur 0 -- -- 71
2021-02-24 05:00:00 7.1 31 Sur 47 Sur 0 -- -- 66
2021-02-24 04:00:00 6.8 25 Sur 48 Sur 0 -- -- 66
2021-02-24 03:00:00 6.7 32 Sur 52 Sur 0 -- -- 67
2021-02-24 02:00:00 6.5 24 Sur 49 Sur 0 -- -- 70
2021-02-24 01:00:00 6.6 16 Sur 43 Sur 0 -- -- 72
2021-02-24 00:00:00 7.1 22 Sur 41 Sur 0 -- -- 70
2021-02-23 23:00:00 6.1 14 Sur 28 Sur 0 -- -- 73
2021-02-23 22:00:00 6.6 17 Sur 45 Sudeste 0 -- -- 68
2021-02-23 21:00:00 6.9 14 Sur 37 Sur 0 -- -- 65
2021-02-23 20:00:00 6.8 14 Sur 32 Sur 0 -- -- 66
2021-02-23 19:00:00 7.7 23 Sur 34 Sur 0 -- -- 66
2021-02-23 18:00:00 9.1 22 Sudeste 36 Sur 0 -- -- 62
2021-02-23 17:00:00 10.1 21 Sudeste 37 Sudeste 0 -- -- 62
2021-02-23 16:00:00 10.8 21 Sudeste 35 Sudeste 0 -- -- 58
2021-02-23 15:00:00 10.7 18 Sudeste 30 Sudeste 0 -- -- 55
2021-02-23 14:00:00 9.6 19 Sudeste 37 Sur 0 -- -- 62
2021-02-23 13:00:00 9 16 Sudeste 29 Sur 0 -- -- 63
2021-02-23 12:00:00 8.8 10 Sudeste 24 Sur 0 -- -- 64
2021-02-23 11:00:00 8.3 8 Sudeste 19 Sudeste 0 -- -- 61
2021-02-23 10:00:00 6 6 Sudeste 23 Sudeste 0 -- -- 74
2021-02-23 09:00:00 2.7 11 Sudeste 20 Sur 0 -- -- 79
2021-02-23 08:00:00 0.8 7 Este 12 Sudeste 0 -- -- 86
2021-02-23 07:00:00 -0.3 9 Sudeste 13 Este 0 -- -- 90
2021-02-23 06:00:00 -0.1 6 Este 12 Sudeste 0 -- -- 91
2021-02-23 05:00:00 -1 3 Este 10 Sudeste 0 -- -- 89
2021-02-23 04:00:00 0.5 10 Este 13 Sudeste 0 -- -- 88
2021-02-23 03:00:00 0.2 7 Sudeste 10 Sudeste 0 -- -- 88
2021-02-23 02:00:00 -0.1 4 Sudeste 10 Sudeste 0 -- -- 90
2021-02-23 01:00:00 -0.1 6 Sudeste 9 Sudeste 0 -- -- 92
2021-02-23 00:00:00 -0.8 6 Este 8 Sudeste 0 -- -- 94
2021-02-22 23:00:00 -0.1 3 Sudeste 7 Sudeste 0 -- -- 91
2021-02-22 22:00:00 1 6 Sudeste 8 Sudeste 0 -- -- 89
2021-02-22 21:00:00 1.6 7 Sudeste 9 Sudeste 0 -- -- 90
2021-02-22 20:00:00 2.4 6 Este 9 Este 0 -- -- 87
2021-02-22 19:00:00 3.4 5 Sudeste 6 Sudeste 0 -- -- 87
2021-02-22 18:00:00 3.8 0 Calma 9 Sudoeste 0 -- -- 84
2021-02-22 17:00:00 3.5 6 Sudoeste 13 Sudoeste 0.2 -- -- 84
2021-02-22 16:00:00 3.2 6 Oeste 15 Oeste 0.6 -- -- 88
2021-02-22 15:00:00 2.8 7 Oeste 16 Oeste 1.4 -- -- 92
2021-02-22 14:00:00 2.4 10 Oeste 16 Oeste 3.2 -- -- 93
2021-02-22 13:00:00 1.5 8 Oeste 15 Oeste 3 -- -- 97
2021-02-22 12:00:00 1.1 6 Oeste 12 Oeste 2 -- -- 97
2021-02-22 11:00:00 0.7 0 Calma 0 Calma 0.6 -- -- 98
2021-02-22 10:00:00 0.3 0 Calma -- -- 0.2 -- -- 98
2021-02-22 09:00:00 0.1 0 Calma -- -- 0 -- -- 99
2021-02-22 08:00:00 -0.1 0 Calma -- -- 0 -- -- 99
2021-02-22 07:00:00 -0.1 0 Calma -- -- 0.2 -- -- 98
2021-02-22 06:00:00 -0.1 0 Calma -- -- 0 -- -- 98
2021-02-22 05:00:00 0.1 0 Calma -- -- 0 -- -- 98
2021-02-22 04:00:00 0.1 0 Calma 25 Oeste 0.2 -- -- 98
2021-02-22 03:00:00 0.3 12 Oeste 28 Sudoeste 0.8 -- -- 97
2021-02-22 02:00:00 0.6 15 Oeste 28 Sudoeste 0.6 -- -- 97
2021-02-22 01:00:00 0.6 12 Sudoeste 22 Sudoeste 0.2 -- -- 97
2021-02-22 00:00:00 0.2 8 Sudoeste 20 Sudoeste 0 -- -- 97
2021-02-21 23:00:00 0.4 13 Sudoeste 30 Sudoeste 0.6 -- -- 96
2021-02-21 22:00:00 0.5 12 Oeste 26 Oeste 0.2 -- -- 96
2021-02-21 21:00:00 0.7 13 Oeste 40 Sudoeste 0.8 -- -- 94
2021-02-21 20:00:00 4.5 14 Oeste 22 Oeste 0.8 -- -- 95
2021-02-21 19:00:00 6.6 4 Sudeste 8 Sudeste 0.4 -- -- 87
2021-02-21 18:00:00 7.2 5 Nordeste 14 Sudeste 0 -- -- 82
2021-02-21 17:00:00 7.4 9 Sudeste 28 Sudeste 0 -- -- 77
2021-02-21 16:00:00 7 14 Sudeste 33 Sudeste 0 -- -- 81
2021-02-21 15:00:00 7.8 22 Sudeste 35 Sudeste 0 -- -- 76
2021-02-21 14:00:00 7.2 14 Nordeste 27 Sudeste 0 -- -- 74
2021-02-21 13:00:00 8.2 8 Sudeste 33 Sudeste 0 -- -- 69
2021-02-21 12:00:00 9.2 13 Sudeste 23 Sudeste 0 -- -- 65
2021-02-21 11:00:00 7.4 8 Este 23 Nordeste 0 -- -- 71
2021-02-21 10:00:00 7.5 10 Sudeste 27 Sudeste 0 -- -- 68
2021-02-21 09:00:00 6.3 18 Sudeste 32 Sudeste 0 -- -- 71
2021-02-21 08:00:00 6.7 8 Este 33 Sur 0 -- -- 68
2021-02-21 07:00:00 6.9 13 Este 40 Este 0 -- -- 69
2021-02-21 06:00:00 6.8 22 Este 54 Sudeste 0 -- -- 70
2021-02-21 05:00:00 6.6 40 Sudeste 60 Sudeste 0 -- -- 75
2021-02-21 04:00:00 6.9 32 Sudeste 51 Sudeste 0 -- -- 76
2021-02-21 03:00:00 7.7 30 Sudeste 50 Sudeste 0 -- -- 71
2021-02-21 02:00:00 8.2 21 Sudeste 40 Sudeste 0 -- -- 68
2021-02-21 01:00:00 8.9 23 Sudeste 48 Sudeste 0 -- -- 60
2021-02-21 00:00:00 10 30 Sudeste 67 Sudeste 0 -- -- 43
2021-02-20 23:00:00 10 23 Sudeste 39 Sudeste 0 -- -- 38
2021-02-20 22:00:00 10.1 21 Sudeste 46 Sur 0 -- -- 35
2021-02-20 21:00:00 10.8 28 Sur 48 Sur 0 -- -- 33
2021-02-20 20:00:00 11 31 Sur 59 Sur 0 -- -- 37
2021-02-20 19:00:00 11.6 34 Sur 59 Sur 0 -- -- 35
2021-02-20 18:00:00 12 31 Sur 54 Sur 0 -- -- 38
2021-02-20 17:00:00 11.8 28 Sur 51 Sur 0 -- -- 44
2021-02-20 16:00:00 11.7 23 Sur 39 Sur 0 -- -- 44
2021-02-20 15:00:00 11.3 15 Sur 44 Sur 0 -- -- 41
2021-02-20 14:00:00 11.8 22 Sudoeste 87 Sur 0 -- -- 43
2021-02-20 13:00:00 11.1 35 Sur 58 Sur 0 -- -- 42
2021-02-20 12:00:00 11 9 Sudoeste 39 Sur 0 -- -- 40
2021-02-20 11:00:00 9.8 4 Nordeste 58 Sur 0 -- -- 48
2021-02-20 10:00:00 8.4 28 Sudeste 66 Sur 0 -- -- 55
2021-02-20 09:00:00 7.7 41 Sur 64 Sudeste 0 -- -- 56
2021-02-20 08:00:00 8.1 32 Sur 57 Sur 0 -- -- 53
2021-02-20 07:00:00 8.9 12 Sudeste 40 Sudoeste 0 -- -- 51
2021-02-20 06:00:00 10.4 24 Sur 46 Sudoeste 0 -- -- 40
2021-02-20 05:00:00 8.1 18 Sur 36 Sudeste 0 -- -- 52
2021-02-20 04:00:00 8.5 22 Sudeste 39 Sudeste 0 -- -- 51
2021-02-20 03:00:00 9.6 17 Sudeste 35 Sur 0 -- -- 46
2021-02-20 02:00:00 10.7 10 Sur 39 Sur 0 -- -- 36
2021-02-20 01:00:00 11.2 21 Sudoeste 53 Sudoeste 0 -- -- 37
2021-02-20 00:00:00 10.6 11 Sur 44 Sur 0 -- -- 44
2021-02-19 23:00:00 10.9 23 Sur 39 Sur 0 -- -- 42
2021-02-19 22:00:00 10.4 19 Sur 44 Sur 0 -- -- 39
2021-02-19 21:00:00 9.3 15 Sudeste 33 Sur 0 -- -- 49
2021-02-19 20:00:00 10.2 17 Sur 28 Sur 0 -- -- 41
2021-02-19 19:00:00 10.9 14 Sur 29 Sur 0 -- -- 41
2021-02-19 18:00:00 12 15 Sur 43 Sur 0 -- -- 39
2021-02-19 17:00:00 13.9 24 Sur 41 Sur 0 -- -- 35
2021-02-19 16:00:00 15.4 25 Sur 40 Sur 0 -- -- 32
2021-02-19 15:00:00 15.6 21 Sur 35 Sur 0 -- -- 37
2021-02-19 14:00:00 14.6 24 Sur 36 Sur 0 -- -- 41
2021-02-19 13:00:00 13.6 24 Sur 40 Sur 0 -- -- 45
2021-02-19 12:00:00 13.6 19 Sur 29 Sur 0 -- -- 37
2021-02-19 11:00:00 12.2 13 Sudoeste 24 Sur 0 -- -- 40
2021-02-19 10:00:00 11 9 Sudoeste 16 Sur 0 -- -- 39
2021-02-19 09:00:00 8 9 Sur 16 Sur 0 -- -- 47
2021-02-19 08:00:00 6.1 10 Sur 16 Sur 0 -- -- 52
2021-02-19 07:00:00 5.5 9 Sudeste 13 Sudoeste 0 -- -- 52
2021-02-19 06:00:00 6.7 6 Sur 15 Sudoeste 0 -- -- 51
2021-02-19 05:00:00 7.1 9 Sur 18 Sudoeste 0 -- -- 47
2021-02-19 04:00:00 7.1 11 Sur 19 Sur 0 -- -- 45
2021-02-19 03:00:00 7 12 Sur 23 Sur 0 -- -- 51
2021-02-19 02:00:00 7 10 Sur 19 Sur 0 -- -- 55
2021-02-19 01:00:00 7.7 10 Sur 19 Sudoeste 0 -- -- 55
2021-02-19 00:00:00 7.3 10 Sur 27 Sudoeste 0 -- -- 53
2021-02-18 23:00:00 7 9 Sur 19 Sur 0 -- -- 51
2021-02-18 22:00:00 6.8 9 Sur 12 Sur 0 -- -- 53
2021-02-18 21:00:00 6.9 8 Sudeste 12 Sur 0 -- -- 60
2021-02-18 20:00:00 8.2 7 Sur 13 Sudoeste 0 -- -- 57
2021-02-18 19:00:00 9.5 9 Sur 23 Oeste 0 -- -- 51
2021-02-18 18:00:00 11.6 18 Oeste 31 Oeste 0 -- -- 42
2021-02-18 17:00:00 11.7 17 Oeste 31 Oeste 0 -- -- 47
2021-02-18 16:00:00 13.3 22 Oeste 42 Oeste 0 -- -- 43
2021-02-18 15:00:00 13.5 22 Oeste 46 Oeste 0 -- -- 43
2021-02-18 14:00:00 12.9 28 Sudoeste 50 Sudoeste 0 -- -- 42
2021-02-18 13:00:00 12.6 24 Sudoeste 46 Sudoeste 0 -- -- 38
2021-02-18 12:00:00 12.2 23 Sudoeste 41 Sudoeste 0 -- -- 39
2021-02-18 11:00:00 11.9 24 Sudoeste 39 Sudoeste 0 -- -- 38
2021-02-18 10:00:00 10.9 15 Sudoeste 37 Sudoeste 0 -- -- 36
2021-02-18 09:00:00 8.8 10 Sur 16 Sudoeste 0 -- -- 42
2021-02-18 08:00:00 8.1 10 Sur 17 Sur 0 -- -- 43
2021-02-18 07:00:00 8.8 13 Sudoeste 21 Sudoeste 0 -- -- 42
2021-02-18 06:00:00 7.5 9 Sur 14 Sur 0 -- -- 44
2021-02-18 05:00:00 8.1 7 Sur 18 Sur 0 -- -- 40
2021-02-18 04:00:00 8.4 6 Sur 16 Sudoeste 0 -- -- 45
2021-02-18 03:00:00 9 8 Sur 18 Sur 0 -- -- 43
2021-02-18 02:00:00 9.6 12 Sur 22 Sur 0 -- -- 47
2021-02-18 01:00:00 9.6 10 Sudeste 26 Sur 0 -- -- 49
2021-02-18 00:00:00 10.5 17 Sur 28 Sur 0 -- -- 45
2021-02-17 23:00:00 10.6 18 Sur 29 Sur 0 -- -- 46
2021-02-17 22:00:00 10.1 16 Sur 22 Sur 0 -- -- 51
2021-02-17 21:00:00 9.8 15 Sur 23 Sur 0 -- -- 62
2021-02-17 20:00:00 9.3 6 Sur 13 Sudoeste 0 -- -- 71
2021-02-17 19:00:00 10.9 4 Sudoeste 12 Sur 0 -- -- 68
2021-02-17 18:00:00 12.8 4 Noroeste 9 Oeste 0 -- -- 63
2021-02-17 17:00:00 13.2 7 Noroeste 18 Oeste 0 -- -- 62
2021-02-17 16:00:00 13.7 6 Oeste 16 Noroeste 0 -- -- 57
2021-02-17 15:00:00 13.6 10 Oeste 27 Sudoeste 0 -- -- 57
2021-02-17 14:00:00 13.5 10 Oeste 22 Oeste 0 -- -- 56
2021-02-17 13:00:00 11.7 6 Oeste 13 Oeste 0 -- -- 66
2021-02-17 12:00:00 10.6 4 Oeste 10 Oeste 0 -- -- 72
2021-02-17 11:00:00 9.5 0 Calma 5 Este 0 -- -- 78
2021-02-17 10:00:00 8.1 0 Calma 5 Este 0 -- -- 86
2021-02-17 09:00:00 5.6 3 Este 9 Sudeste 0 -- -- 92
2021-02-17 08:00:00 5.8 3 Este 5 Nordeste 0 -- -- 90
2021-02-17 07:00:00 7.1 2 Norte 5 Norte 0 -- -- 87
2021-02-17 06:00:00 7.7 4 Noroeste 11 Noroeste 0 -- -- 84
2021-02-17 05:00:00 8.3 4 Oeste 10 Oeste 0 -- -- 80
2021-02-17 04:00:00 8.6 2 Sudoeste 6 Sudoeste 0 -- -- 77
2021-02-17 03:00:00 8.5 4 Sur 6 Sudoeste 0 -- -- 78
2021-02-17 02:00:00 8.5 5 Sudoeste 9 Oeste 0 -- -- 78
2021-02-17 01:00:00 8.6 5 Sudoeste 13 Sudoeste 0 -- -- 78
2021-02-17 00:00:00 8.7 6 Sudoeste 14 Sudoeste 0 -- -- 76
2021-02-16 23:00:00 8.8 5 Sudoeste 17 Oeste 0 -- -- 74
2021-02-16 22:00:00 9 9 Sudoeste 18 Sudoeste 0 -- -- 72
2021-02-16 21:00:00 9.2 6 Sudoeste 17 Sudoeste 0 -- -- 72
2021-02-16 20:00:00 9.6 7 Sur 13 Sudoeste 0 -- -- 67
2021-02-16 19:00:00 10.1 5 Sudoeste 15 Sudoeste 0 -- -- 60
2021-02-16 18:00:00 11.3 6 Oeste 23 Oeste 0 -- -- 56
2021-02-16 17:00:00 12.7 18 Oeste 29 Oeste 0 -- -- 55
2021-02-16 16:00:00 12.9 3 Noroeste 19 Noroeste 0 -- -- 61
2021-02-16 15:00:00 12.9 14 Oeste 27 Oeste 0 -- -- 59
2021-02-16 14:00:00 14.7 13 Oeste 28 Oeste 0 -- -- 51
2021-02-16 13:00:00 12.4 9 Noroeste 26 Noroeste 0 -- -- 59
2021-02-16 12:00:00 13.7 16 Noroeste 48 Oeste 0 -- -- 46
2021-02-16 11:00:00 15 22 Sudoeste 47 Sudoeste 0 -- -- 31
2021-02-16 10:00:00 14.8 22 Sudoeste 33 Sudoeste 0 -- -- 32
2021-02-16 09:00:00 13.1 17 Sudoeste 30 Sudoeste 0 -- -- 34
2021-02-16 08:00:00 10.8 6 Sur 24 Sudoeste 0 -- -- 39
2021-02-16 07:00:00 11.5 10 Sur 26 Sudoeste 0 -- -- 38
2021-02-16 06:00:00 13 17 Sudoeste 33 Sudoeste 0 -- -- 31
2021-02-16 05:00:00 12.5 17 Sur 27 Sur 0 -- -- 35
2021-02-16 04:00:00 12.3 17 Sur 23 Sur 0 -- -- 35
2021-02-16 03:00:00 12.3 15 Sur 23 Sur 0 -- -- 35
2021-02-16 02:00:00 11.8 17 Sur 24 Sur 0 -- -- 37
2021-02-16 01:00:00 10.1 12 Sudeste 24 Sudeste 0 -- -- 47
2021-02-16 00:00:00 10 16 Sudeste 25 Sudeste 0 -- -- 48
2021-02-15 23:00:00 9.4 15 Sudeste 24 Sur 0 -- -- 51
2021-02-15 22:00:00 9.5 12 Sudeste 24 Sudeste 0 -- -- 53
2021-02-15 21:00:00 9.2 13 Sudeste 22 Sudeste 0 -- -- 52
2021-02-15 20:00:00 9.6 13 Sudeste 26 Sudeste 0 -- -- 57
2021-02-15 19:00:00 10.8 14 Sudeste 24 Sur 0 -- -- 51
2021-02-15 18:00:00 13 13 Sudeste 30 Sur 0 -- -- 48
2021-02-15 17:00:00 14.4 17 Sur 25 Sur 0 -- -- 47
2021-02-15 16:00:00 15.5 13 Sudeste 23 Sur 0 -- -- 46
2021-02-15 15:00:00 15.7 5 Oeste 21 Sudeste 0 -- -- 44
2021-02-15 14:00:00 15.1 13 Sudeste 21 Sudeste 0 -- -- 46
2021-02-15 13:00:00 14.1 11 Sudeste 21 Sudeste 0 -- -- 46
2021-02-15 12:00:00 13.7 2 Noroeste 8 Sudeste 0 -- -- 45
2021-02-15 11:00:00 12.2 3 Sudeste 9 Sudeste 0 -- -- 48
2021-02-15 10:00:00 8.9 4 Sudeste 10 Este 0 -- -- 64
2021-02-15 09:00:00 5.6 6 Este 14 Este 0 -- -- 72
2021-02-15 08:00:00 5.2 10 Este 16 Este 0 -- -- 74
2021-02-15 07:00:00 5.1 8 Sudeste 11 Este 0 -- -- 76
2021-02-15 06:00:00 5.5 5 Este 14 Este 0 -- -- 71
2021-02-15 05:00:00 6.1 10 Este 18 Sudeste 0 -- -- 71
2021-02-15 04:00:00 5.6 13 Sudeste 16 Sudeste 0 -- -- 76
2021-02-15 03:00:00 6.5 13 Sudeste 18 Sudeste 0 -- -- 73
2021-02-15 02:00:00 6.8 11 Sudeste 20 Sudeste 0 -- -- 67
2021-02-15 01:00:00 7.8 10 Sudeste 19 Sudeste 0 -- -- 62
2021-02-15 00:00:00 8.4 13 Sudeste 22 Sur 0 -- -- 62
2021-02-14 23:00:00 8.4 13 Sudeste 24 Sur 0 -- -- 65
2021-02-14 22:00:00 8 12 Sudeste 20 Sur 0 -- -- 70
2021-02-14 21:00:00 8.2 13 Sudeste 17 Sudeste 0 -- -- 71
2021-02-14 20:00:00 8.6 12 Sudeste 18 Sudeste 0 -- -- 72
2021-02-14 19:00:00 10 11 Sudeste 15 Sudeste 0 -- -- 70
2021-02-14 18:00:00 12.3 7 Sudeste 17 Sudeste 0 -- -- 61
2021-02-14 17:00:00 13 12 Sudeste 21 Sudeste 0 -- -- 59
2021-02-14 16:00:00 15.2 12 Sur 19 Sur 0 -- -- 54
2021-02-14 15:00:00 14.4 3 Sur 18 Oeste 0 -- -- 50
2021-02-14 14:00:00 13.4 6 Sudoeste 17 Oeste 0 -- -- 52
2021-02-14 13:00:00 12.4 6 Oeste 17 Sudoeste 0 -- -- 53
2021-02-14 12:00:00 11 6 Oeste 14 Oeste 0 -- -- 61
2021-02-14 11:00:00 9.6 2 Oeste 6 Oeste 0 -- -- 70
2021-02-14 10:00:00 7.3 2 Sudeste 9 Sudeste 0 -- -- 86
2021-02-14 09:00:00 4.4 6 Este 12 Sudeste 0 -- -- 90
2021-02-14 08:00:00 2.8 10 Sudeste 13 Sudeste 0 -- -- 94
2021-02-14 07:00:00 2.9 9 Sudeste 10 Este 0 -- -- 89
2021-02-14 06:00:00 1.7 9 Sudeste 12 Sudeste 0 -- -- 88
2021-02-14 05:00:00 2 5 Sudeste 8 Este 0 -- -- 92
2021-02-14 04:00:00 2.2 3 Sudeste 12 Este 0 -- -- 89
2021-02-14 03:00:00 2 2 Sudeste 5 Sudeste 0 -- -- 91
2021-02-14 02:00:00 4 4 Nordeste 11 Este 0 -- -- 86
2021-02-14 01:00:00 4.5 9 Sudeste 12 Sur 0 -- -- 86
2021-02-14 00:00:00 4.3 8 Sudeste 11 Sudeste 0 -- -- 90
2021-02-13 23:00:00 4.9 7 Sudeste 9 Sudeste 0 -- -- 90
2021-02-13 22:00:00 5.5 6 Sudeste 9 Sudeste 0 -- -- 88
2021-02-13 21:00:00 6.8 2 Sudeste 4 Noroeste 0 -- -- 86
2021-02-13 20:00:00 7.9 4 Noroeste 12 Oeste 0 -- -- 81
2021-02-13 19:00:00 8.4 6 Oeste 17 Oeste 0 -- -- 76
2021-02-13 18:00:00 10.4 12 Oeste 23 Oeste 0 -- -- 64
2021-02-13 17:00:00 10.7 13 Oeste 31 Sudoeste 0 -- -- 64
2021-02-13 16:00:00 10.7 14 Oeste 30 Oeste 0 -- -- 62
2021-02-13 15:00:00 9.4 16 Oeste 34 Oeste 0 -- -- 62
2021-02-13 14:00:00 8.9 17 Oeste 29 Oeste 0 -- -- 53
2021-02-13 13:00:00 8.3 19 Oeste 33 Oeste 0 -- -- 55
2021-02-13 08:00:00 -- -- -- -- -- -- -- -- --
2021-02-13 07:00:00 -- -- -- -- -- -- -- -- --
2021-02-13 06:00:00 -- -- -- -- -- -- -- -- --
2021-02-13 05:00:00 4.7 4 Sudoeste 7 Oeste 0 -- -- 91
2021-02-13 04:00:00 5.3 5 Sudoeste 13 Sudoeste 0 -- -- 89
2021-02-13 03:00:00 5.7 5 Sudoeste 14 Oeste 0 -- -- 89
2021-02-13 02:00:00 5.7 6 Oeste 13 Sudoeste 0 -- -- 89
2021-02-13 01:00:00 5.7 9 Oeste 17 Oeste 0 -- -- 89
2021-02-13 00:00:00 5.8 6 Oeste 16 Oeste 0 -- -- 89
2021-02-12 23:00:00 6.2 6 Oeste 19 Oeste 0 -- -- 87
2021-02-12 22:00:00 6.4 11 Oeste 20 Oeste 0 -- -- 86
2021-02-12 21:00:00 6.6 9 Oeste 19 Oeste 0 -- -- 88
2021-02-12 20:00:00 6.8 11 Oeste 24 Oeste 0 -- -- 88
2021-02-12 19:00:00 7.2 10 Oeste 29 Oeste 0 -- -- 86
2021-02-12 18:00:00 8.7 16 Oeste 33 Oeste 0 -- -- 80
2021-02-12 17:00:00 8 17 Oeste 34 Oeste 0 -- -- 84
2021-02-12 16:00:00 7.6 20 Oeste 31 Oeste 0 -- -- 86
2021-02-12 15:00:00 7.3 15 Oeste 32 Oeste 0.2 -- -- 89
2021-02-12 14:00:00 6.7 19 Oeste 40 Oeste 0 -- -- 90
2021-02-12 13:00:00 6.2 22 Oeste 40 Oeste 0 -- -- 92
2021-02-12 12:00:00 5.4 25 Oeste 42 Oeste 0.2 -- -- 96
2021-02-12 11:00:00 5.3 24 Oeste 39 Oeste 0 -- -- 94
2021-02-12 10:00:00 5.3 20 Oeste 35 Oeste 0 -- -- 96
2021-02-12 09:00:00 5.5 22 Oeste 39 Oeste 0.2 -- -- 96
2021-02-12 08:00:00 6.1 21 Oeste 39 Oeste 0 -- -- 96
2021-02-12 07:00:00 6.8 19 Oeste 36 Oeste 1.2 -- -- 97
2021-02-12 06:00:00 7 15 Oeste 42 Oeste 1.2 -- -- 95
2021-02-12 05:00:00 7 10 Sur 42 Oeste 1.6 -- -- 95
2021-02-12 04:00:00 9 15 Oeste 26 Oeste 0 -- -- 76
2021-02-12 03:00:00 9.3 6 Sudeste 19 Sur 0 -- -- 69
2021-02-12 02:00:00 8.2 9 Sudoeste 19 Sur 0 -- -- 74
2021-02-12 01:00:00 7.6 4 Sur 14 Sudoeste 0 -- -- 76
2021-02-12 00:00:00 7 4 Sur 10 Sudeste 0 -- -- 85
2021-02-11 23:00:00 7.7 0 Calma 9 Sudeste 0 -- -- 86
2021-02-11 22:00:00 8.6 5 Sudeste 12 Sudeste 0 -- -- 89
2021-02-11 21:00:00 8.5 6 Sudeste 9 Sudeste 0 -- -- 92
2021-02-11 20:00:00 9.5 2 Sur 8 Oeste 0 -- -- 93
2021-02-11 19:00:00 10.3 5 Oeste 13 Noroeste 0 -- -- 91
2021-02-11 18:00:00 11.2 5 Noroeste 12 Noroeste 0 -- -- 87
2021-02-11 17:00:00 11.9 3 Oeste 8 Sudoeste 0 -- -- 83
2021-02-11 16:00:00 11.6 4 Sur 6 Sudeste 0 -- -- 85
2021-02-11 15:00:00 10.8 2 Sudeste 9 Sudoeste 0.2 -- -- 90
2021-02-11 14:00:00 10 7 Oeste 25 Oeste 0 -- -- 93
2021-02-11 13:00:00 10.9 13 Oeste 28 Oeste 0 -- -- 82
2021-02-11 12:00:00 10.4 15 Oeste 26 Oeste 0 -- -- 83
2021-02-11 11:00:00 10 15 Sudoeste 24 Sudoeste 0 -- -- 85
2021-02-11 10:00:00 8.4 6 Sudoeste 17 Oeste 0 -- -- 96
2021-02-11 09:00:00 7.8 10 Oeste 21 Sudoeste 0 -- -- 97
2021-02-11 08:00:00 7.8 14 Sudoeste 23 Oeste 0.2 -- -- 96
2021-02-11 07:00:00 7.9 9 Sudoeste 18 Sudoeste 0 -- -- 95
2021-02-11 06:00:00 7.5 10 Sudoeste 22 Sudoeste 0 -- -- 96
2021-02-11 05:00:00 7.2 11 Oeste 30 Sudoeste 0 -- -- 95
2021-02-11 04:00:00 6.2 8 Sudoeste 18 Sudoeste 0 -- -- 93
2021-02-11 03:00:00 4.9 7 Sur 10 Sur 0 -- -- 93
2021-02-11 02:00:00 4.9 5 Sur 29 Sudoeste 0.2 -- -- 91
2021-02-11 01:00:00 5.8 7 Sudoeste 20 Sudoeste 0 -- -- 70
2021-02-11 00:00:00 4.9 6 Sur 10 Sudoeste 0 -- -- 66
2021-02-10 23:00:00 3.3 7 Sur 12 Sur 0 -- -- 65
2021-02-10 22:00:00 3.4 7 Sur 10 Sur 0 -- -- 69
2021-02-10 21:00:00 3.9 4 Sur 17 Sudoeste 0 -- -- 72
2021-02-10 20:00:00 4.5 4 Sudoeste 16 Oeste 0 -- -- 74
2021-02-10 19:00:00 5.7 11 Oeste 27 Oeste 0 -- -- 71
2021-02-10 18:00:00 7.3 16 Oeste 37 Sudoeste 0 -- -- 64
2021-02-10 17:00:00 8.2 22 Sudoeste 33 Oeste 0 -- -- 63
2021-02-10 16:00:00 8 21 Oeste 37 Sudoeste 0 -- -- 65
2021-02-10 15:00:00 7.4 23 Oeste 37 Oeste 0 -- -- 69
2021-02-10 14:00:00 6.2 21 Oeste 40 Oeste 0 -- -- 75
2021-02-10 13:00:00 5.5 27 Oeste 46 Oeste 0 -- -- 75
2021-02-10 12:00:00 4.8 26 Oeste 41 Oeste 0 -- -- 83
2021-02-10 11:00:00 3.4 25 Oeste 49 Oeste 0 -- -- 90
2021-02-10 10:00:00 2.8 29 Oeste 53 Oeste 0 -- -- 93
2021-02-10 09:00:00 2.8 33 Oeste 56 Oeste 0 -- -- 95
2021-02-10 08:00:00 2.7 23 Oeste 49 Oeste 0 -- -- 98
2021-02-10 07:00:00 2.3 21 Oeste 50 Oeste 0.2 -- -- 99
2021-02-10 06:00:00 1.8 20 Oeste 49 Oeste 0.8 -- -- 99
2021-02-10 05:00:00 0.9 26 Oeste 55 Oeste 1.8 -- -- 98
2021-02-10 04:00:00 2.6 23 Oeste 36 Oeste 3.2 -- -- 98
2021-02-10 03:00:00 2 5 Oeste 27 Oeste 3 -- -- 97
2021-02-10 02:00:00 2.7 18 Oeste 35 Oeste 1.4 -- -- 95
2021-02-10 01:00:00 3.2 18 Oeste 48 Sudoeste 0.6 -- -- 96
2021-02-10 00:00:00 3.7 22 Sudoeste 44 Sudoeste 0.2 -- -- 90
2021-02-09 23:00:00 3.9 24 Sudoeste 44 Sudoeste 0 -- -- 90
2021-02-09 22:00:00 3 16 Sudoeste 33 Sudoeste 0 -- -- 96
2021-02-09 21:00:00 1.8 10 Sur 39 Oeste 0.4 -- -- 98
2021-02-09 20:00:00 2.2 27 Oeste 55 Oeste 2.6 -- -- 95
2021-02-09 19:00:00 3.6 13 Sur 34 Sudoeste 0.4 -- -- 93
2021-02-09 18:00:00 3.4 12 Sudoeste 39 Oeste 0 -- -- 91
2021-02-09 17:00:00 3.6 25 Sudoeste 48 Oeste 0 -- -- 88
2021-02-09 16:00:00 2.5 22 Sudoeste 37 Sudoeste 0.8 -- -- 96
2021-02-09 15:00:00 2 17 Oeste 76 Oeste 2.8 -- -- 96
2021-02-09 14:00:00 5.7 40 Sudoeste 72 Sudoeste 2.2 -- -- 88
2021-02-09 13:00:00 7.4 19 Sudoeste 49 Sudoeste 0 -- -- 78
2021-02-09 12:00:00 8.4 25 Sudoeste 42 Sur 0 -- -- 69
2021-02-09 11:00:00 6.8 30 Sur 44 Sur 0 -- -- 75
2021-02-09 10:00:00 6.1 17 Sur 37 Sur 0 -- -- 79
2021-02-09 09:00:00 5.3 15 Sur 33 Sur 0 -- -- 82
2021-02-09 08:00:00 4.6 11 Sudeste 21 Sur 0 -- -- 87
2021-02-09 07:00:00 4.3 11 Sur 35 Sudoeste 0 -- -- 88
2021-02-09 06:00:00 4.5 16 Sudoeste 37 Sudoeste 0.2 -- -- 86
2021-02-09 05:00:00 3.9 17 Sudoeste 37 Sudoeste 0.4 -- -- 92
2021-02-09 04:00:00 1.4 10 Sudoeste 32 Oeste 0.8 -- -- 97
2021-02-09 03:00:00 1.5 22 Sudoeste 51 Oeste 0.8 -- -- 95
2021-02-09 02:00:00 3.8 16 Sudoeste 32 Oeste 0 -- -- 93
2021-02-09 01:00:00 3.7 27 Oeste 45 Sudoeste 0 -- -- 95
2021-02-09 00:00:00 3.8 25 Oeste 43 Sudoeste 0 -- -- 95
2021-02-08 23:00:00 4.1 21 Oeste 44 Oeste 0 -- -- 96
2021-02-08 22:00:00 4.2 26 Oeste 48 Oeste 0.4 -- -- 97
2021-02-08 21:00:00 4.2 28 Oeste 50 Oeste 0 -- -- 97
2021-02-08 20:00:00 4.1 26 Oeste 48 Oeste 0 -- -- 98
2021-02-08 19:00:00 4.1 30 Oeste 51 Noroeste 0.2 -- -- 98
2021-02-08 18:00:00 3 22 Oeste 42 Oeste 0 -- -- 97
2021-02-08 17:00:00 3.1 24 Oeste 50 Oeste 1.6 -- -- 95
2021-02-08 16:00:00 3.9 23 Oeste 41 Oeste 0.4 -- -- 92
2021-02-08 15:00:00 4.3 28 Oeste 54 Oeste 0.2 -- -- 87
2021-02-08 14:00:00 4.7 28 Oeste 53 Oeste 0 -- -- 85
2021-02-08 13:00:00 4.9 26 Oeste 50 Oeste 0 -- -- 87
2021-02-08 12:00:00 4.1 18 Oeste 44 Oeste 0 -- -- 94
2021-02-08 11:00:00 1.9 13 Sudoeste 42 Sudoeste 1.2 -- -- 98
2021-02-08 10:00:00 3.2 21 Oeste 48 Oeste 0 -- -- 94
2021-02-08 09:00:00 3.1 26 Oeste 43 Oeste 0.2 -- -- 96
2021-02-08 08:00:00 3.5 24 Oeste 45 Oeste 0.2 -- -- 96
2021-02-08 07:00:00 3.9 16 Sudoeste 38 Sudoeste 0 -- -- 94
2021-02-08 06:00:00 3.7 13 Sudoeste 32 Oeste 0.4 -- -- 96
2021-02-08 05:00:00 4 20 Sudoeste 40 Sudoeste 1.2 -- -- 93
2021-02-08 04:00:00 4.9 15 Sudoeste 27 Sudoeste 0.2 -- -- 92
2021-02-08 03:00:00 4.5 10 Sudoeste 37 Sudoeste 2.6 -- -- 95
2021-02-08 02:00:00 5.6 12 Oeste 19 Oeste 1.2 -- -- 94
2021-02-08 01:00:00 5.9 12 Sur 27 Sudoeste 0 -- -- 91
2021-02-08 00:00:00 5.5 12 Sudoeste 22 Sudoeste 0.2 -- -- 93
2021-02-07 23:00:00 4.2 12 Sudoeste 24 Sudoeste 0 -- -- 97
2021-02-07 22:00:00 3.3 15 Sudoeste 33 Sudoeste 0 -- -- 96
2021-02-07 21:00:00 2.3 13 Oeste 26 Sudoeste 0.2 -- -- 95
2021-02-07 20:00:00 2.2 14 Oeste 30 Sudoeste 0.4 -- -- 95
2021-02-07 19:00:00 1.2 14 Sudoeste 27 Oeste 0.4 -- -- 97
2021-02-07 18:00:00 1.7 13 Oeste 35 Oeste 0.4 -- -- 93
2021-02-07 17:00:00 4.6 18 Oeste 36 Oeste 0 -- -- 79
2021-02-07 16:00:00 5 20 Oeste 34 Oeste 0 -- -- 74
2021-02-07 15:00:00 5.1 20 Oeste 33 Oeste 0 -- -- 72
2021-02-07 14:00:00 5.1 17 Oeste 29 Sudoeste 0 -- -- 70
2021-02-07 13:00:00 5.1 15 Oeste 26 Oeste 0 -- -- 66
2021-02-07 12:00:00 3.7 9 Sudoeste 20 Sudoeste 0 -- -- 76
2021-02-07 11:00:00 1.4 4 Sur 8 Sur 0 -- -- 96
2021-02-07 10:00:00 0.3 0 Calma 4 Noroeste 0 -- -- 96
2021-02-07 09:00:00 0.1 2 Sudoeste 5 Sudoeste 0 -- -- 97
2021-02-07 08:00:00 0.4 5 Noroeste 15 Noroeste 0 -- -- 96
2021-02-07 07:00:00 1.1 0 Calma 3 Sudoeste 0 -- -- 94
2021-02-07 06:00:00 1.2 0 Calma 4 Oeste 0 -- -- 94
2021-02-07 05:00:00 1.3 0 Calma 4 Sur 0 -- -- 95
2021-02-07 04:00:00 1.5 0 Calma 3 Noroeste 0 -- -- 95
2021-02-07 03:00:00 1.5 2 Noroeste 8 Norte 0 -- -- 92
2021-02-07 02:00:00 1.7 3 Norte 15 Norte 0.2 -- -- 90
2021-02-07 01:00:00 2.1 8 Norte 16 Norte 0 -- -- 96
2021-02-07 00:00:00 2.5 5 Noroeste 15 Noroeste 0.4 -- -- 97
2021-02-06 23:00:00 3 5 Noroeste 9 Noroeste 0 -- -- 96
2021-02-06 22:00:00 3.2 2 Nordeste 8 Nordeste 0 -- -- 95
2021-02-06 21:00:00 3.4 4 Nordeste 10 Nordeste 0.2 -- -- 96
2021-02-06 20:00:00 3.7 5 Norte 14 Norte 0.2 -- -- 95
2021-02-06 19:00:00 4.3 7 Norte 16 Norte 0 -- -- 91
2021-02-06 18:00:00 4.7 10 Norte 19 Norte 0 -- -- 91
2021-02-06 17:00:00 5.7 9 Noroeste 16 Noroeste 0 -- -- 92
2021-02-06 16:00:00 5.5 10 Noroeste 22 Noroeste 0 -- -- 95
2021-02-06 15:00:00 6.2 12 Noroeste 18 Norte 0.2 -- -- 94
2021-02-06 14:00:00 6.9 8 Noroeste 18 Noroeste 0 -- -- 94
2021-02-06 13:00:00 6.6 8 Noroeste 15 Noroeste 0.4 -- -- 93
2021-02-06 12:00:00 6.5 2 Noroeste 5 Norte 0 -- -- 93
2021-02-06 11:00:00 5.8 3 Noroeste 9 Noroeste 0 -- -- 96
2021-02-06 10:00:00 5.4 0 Calma 4 Oeste 0 -- -- 96
2021-02-06 09:00:00 5.1 0 Calma 6 Sudeste 0.4 -- -- 95
2021-02-06 08:00:00 4.9 4 Este 8 Este 1.8 -- -- 94
2021-02-06 07:00:00 5.3 4 Oeste 20 Sudeste 0.2 -- -- 92
2021-02-06 06:00:00 5.9 12 Sudeste 19 Sudeste 0 -- -- 86
2021-02-06 05:00:00 5.8 11 Sudeste 18 Sudeste 0 -- -- 85
2021-02-06 04:00:00 6.4 11 Sudeste 15 Este 0 -- -- 87
2021-02-06 03:00:00 6.7 6 Sudoeste 21 Sudeste 0 -- -- 87
2021-02-06 02:00:00 6.4 22 Sur 39 Sudeste 0.2 -- -- 91
2021-02-06 01:00:00 6.5 18 Sudeste 28 Sur 0 -- -- 87
2021-02-06 00:00:00 5.8 3 Sudoeste 27 Sur 1.6 -- -- 92
2021-02-05 23:00:00 6.9 13 Sudeste 37 Sur 2 -- -- 89
2021-02-05 22:00:00 10.3 18 Sur 32 Sudeste 0 -- -- 73
2021-02-05 21:00:00 10.6 10 Sur 28 Sudeste 0 -- -- 68
2021-02-05 20:00:00 10.4 10 Sudeste 31 Sudeste 0 -- -- 70
2021-02-05 19:00:00 10.7 21 Sudeste 36 Sudeste 0 -- -- 68
2021-02-05 18:00:00 11.6 3 Este 23 Sudeste 0 -- -- 63
2021-02-05 17:00:00 12.6 16 Sudeste 32 Sudeste 0 -- -- 58
2021-02-05 16:00:00 13 21 Sudeste 36 Sudeste 0 -- -- 56
2021-02-05 15:00:00 13.7 18 Sudeste 27 Sur 0 -- -- 57
2021-02-05 14:00:00 12.2 11 Nordeste 22 Sudeste 0 -- -- 66
2021-02-05 13:00:00 11.2 9 Nordeste 13 Norte 0 -- -- 72
2021-02-05 12:00:00 10.1 4 Norte 10 Norte 0 -- -- 75
2021-02-05 11:00:00 8.3 5 Este 11 Norte 0 -- -- 79
2021-02-05 10:00:00 7.3 0 Calma 5 Este 0 -- -- 82
2021-02-05 09:00:00 5.7 5 Sudeste 9 Sudeste 0 -- -- 85
2021-02-05 08:00:00 6 7 Sudeste 18 Nordeste 0 -- -- 83
2021-02-05 07:00:00 7.3 14 Nordeste 21 Nordeste 0 -- -- 80
2021-02-05 06:00:00 7.7 8 Nordeste 15 Noroeste 0 -- -- 76
2021-02-05 05:00:00 9.2 4 Sudoeste 21 Sudeste 0 -- -- 70
2021-02-05 04:00:00 10.6 3 Noroeste 26 Sur 0 -- -- 62
2021-02-05 03:00:00 10.9 18 Sudoeste 32 Sur 0 -- -- 62
2021-02-05 02:00:00 11 21 Sur 59 Sudoeste 0 -- -- 66
2021-02-05 01:00:00 8.8 3 Noroeste 33 Sur 0 -- -- 76
2021-02-05 00:00:00 8.4 11 Sudoeste 28 Sudoeste 0 -- -- 77
2021-02-04 23:00:00 5.8 5 Sudoeste 19 Sur 0 -- -- 93
2021-02-04 22:00:00 5.8 12 Sudeste 22 Este 0 -- -- 98
2021-02-04 21:00:00 5.6 5 Oeste 9 Oeste 0 -- -- 96
2021-02-04 20:00:00 6.1 4 Oeste 10 Oeste 0 -- -- 95
2021-02-04 19:00:00 6.6 8 Oeste 16 Oeste 0 -- -- 92
2021-02-04 18:00:00 7.9 7 Oeste 26 Sur 0 -- -- 88
2021-02-04 17:00:00 10.3 13 Sur 31 Sur 0 -- -- 68
2021-02-04 16:00:00 11.2 17 Sur 35 Sur 0 -- -- 62
2021-02-04 15:00:00 11.3 24 Sur 41 Sur 0 -- -- 62
2021-02-04 14:00:00 10.6 22 Sur 38 Sur 0 -- -- 64
2021-02-04 13:00:00 10.1 15 Sudeste 30 Sur 0 -- -- 76
2021-02-04 12:00:00 9.4 11 Sur 19 Sudeste 0 -- -- 82
2021-02-04 11:00:00 8.6 10 Este 19 Sudeste 0 -- -- 86
2021-02-04 10:00:00 7.8 12 Sudeste 24 Sudeste 0 -- -- 91
2021-02-04 09:00:00 7 6 Sudeste 13 Este 0 -- -- 96
2021-02-04 08:00:00 6.5 7 Este 16 Este 0 -- -- 98
2021-02-04 07:00:00 6.2 6 Norte 12 Nordeste 0 -- -- 98
2021-02-04 06:00:00 6.3 7 Nordeste 12 Nordeste 0 -- -- 98
2021-02-04 05:00:00 6.4 3 Norte 8 Nordeste 0 -- -- 97
2021-02-04 04:00:00 6.6 3 Norte 6 Noroeste 0 -- -- 97
2021-02-04 03:00:00 6.8 3 Nordeste 6 Norte 0 -- -- 97
2021-02-04 02:00:00 7.1 3 Norte 8 Noroeste 0 -- -- 97
2021-02-04 01:00:00 7.1 3 Sudoeste 15 Oeste 0.2 -- -- 97
2021-02-04 00:00:00 7.6 9 Oeste 16 Oeste 0.4 -- -- 95